Time;durP1;ratioP1;P1;durP2;ratioP2;P2;SDS_P1;SDS_P2;PMS_P1;PMS_P2;Temp;Humidity;BMP_temperature;BMP_pressure;BME280_temperature;BME280_humidity;BME280_pressure;Samples;Min_cycle;Max_cycle;Signal;HPM_P1;HPM_P2
2022/10/31 00:00:40;;;;;;;;;7.00;6.00;;;;;;;;5036140;28;45491;-71
2022/10/31 00:03:06;;;;;;;;;11.67;9.00;;;;;;;;5044889;28;45456;-71
2022/10/31 00:05:31;;;;;;;;;10.00;7.00;;;;;;;;5037629;28;45279;-71
2022/10/31 00:07:56;;;;;;;;;7.50;4.25;;;;;;;;5036521;28;45425;-71
2022/10/31 00:10:21;;;;;;;;;5.00;5.00;;;;;;;;5036381;28;45487;-71
2022/10/31 00:12:46;;;;;;;;;5.75;5.75;;;;;;;;5036455;28;45352;-71
2022/10/31 00:15:12;;;;;;;;;7.00;7.00;;;;;;;;5037944;28;45473;-70
2022/10/31 00:17:37;;;;;;;;;7.25;6.00;;;;;;;;5036596;28;46479;-71
2022/10/31 00:20:02;;;;;;;;;10.67;6.00;;;;;;;;5036708;28;45253;-71
2022/10/31 00:22:27;;;;;;;;;5.75;5.75;;;;;;;;5036552;28;45235;-70
2022/10/31 00:24:53;;;;;;;;;5.00;5.00;;;;;;;;5036966;28;45291;-71
2022/10/31 00:27:18;;;;;;;;;4.75;4.00;;;;;;;;5036393;28;45553;-70
2022/10/31 00:29:43;;;;;;;;;4.00;3.00;;;;;;;;5037429;28;45222;-70
2022/10/31 00:32:08;;;;;;;;;8.50;5.50;;;;;;;;5036837;28;45387;-71
2022/10/31 00:34:33;;;;;;;;;5.25;5.00;;;;;;;;5036866;28;45213;-70
2022/10/31 00:36:59;;;;;;;;;8.00;6.50;;;;;;;;5037358;28;45595;-70
2022/10/31 00:39:24;;;;;;;;;4.00;4.00;;;;;;;;5051911;28;45541;-71
2022/10/31 00:41:49;;;;;;;;;8.00;5.33;;;;;;;;5038784;28;45398;-70
2022/10/31 00:44:14;;;;;;;;;7.00;7.00;;;;;;;;5036485;28;45479;-71
2022/10/31 00:46:39;;;;;;;;;7.50;5.00;;;;;;;;5044244;28;45449;-70
2022/10/31 00:49:05;;;;;;;;;8.00;6.75;;;;;;;;5037695;28;45533;-71
2022/10/31 00:51:30;;;;;;;;;11.33;8.33;;;;;;;;5047178;28;45433;-71
2022/10/31 00:53:55;;;;;;;;;8.00;6.67;;;;;;;;5051064;28;45387;-71
2022/10/31 00:56:20;;;;;;;;;8.67;7.00;;;;;;;;5056489;28;46503;-71
2022/10/31 00:58:45;;;;;;;;;9.25;7.00;;;;;;;;5056300;28;45820;-70
2022/10/31 01:01:11;;;;;;;;;11.75;7.25;;;;;;;;5046462;28;45561;-70
2022/10/31 01:03:38;;;;;;;;;8.25;7.75;;;;;;;;5049392;28;45762;-71
2022/10/31 01:06:08;;;;;;;;;8.00;8.00;;;;;;;;5043825;28;47147;-72
2022/10/31 01:08:34;;;;;;;;;9.50;8.25;;;;;;;;5042459;28;45407;-69
2022/10/31 01:11:05;;;;;;;;;8.75;7.50;;;;;;;;5041211;28;45477;-69
2022/10/31 01:13:30;;;;;;;;;9.25;7.75;;;;;;;;5058066;28;45733;-69
2022/10/31 01:15:56;;;;;;;;;10.00;7.50;;;;;;;;5057614;28;46666;-69
2022/10/31 01:18:22;;;;;;;;;7.00;7.00;;;;;;;;5059587;28;45394;-71
2022/10/31 01:20:47;;;;;;;;;9.25;7.50;;;;;;;;5046659;28;45218;-71
2022/10/31 01:23:12;;;;;;;;;8.50;6.75;;;;;;;;5039448;28;45779;-71
2022/10/31 01:25:37;;;;;;;;;9.00;7.33;;;;;;;;5042106;28;46691;-71
2022/10/31 01:28:02;;;;;;;;;6.33;6.33;;;;;;;;5059312;28;45527;-71
2022/10/31 01:30:28;;;;;;;;;7.00;7.00;;;;;;;;5059318;28;45379;-71
2022/10/31 01:32:53;;;;;;;;;8.00;7.00;;;;;;;;5059468;28;45375;-71
2022/10/31 01:35:18;;;;;;;;;9.00;8.00;;;;;;;;5057865;28;46299;-71
2022/10/31 01:37:43;;;;;;;;;8.33;7.33;;;;;;;;5056570;28;45402;-71
2022/10/31 01:40:09;;;;;;;;;10.00;7.00;;;;;;;;5059274;28;45210;-71
2022/10/31 01:42:34;;;;;;;;;7.25;5.50;;;;;;;;5040950;28;45418;-70
2022/10/31 01:45:00;;;;;;;;;8.00;7.00;;;;;;;;5038744;28;45451;-70
2022/10/31 01:47:43;;;;;;;;;5.00;5.00;;;;;;;;5038579;28;45409;-70
2022/10/31 01:50:14;;;;;;;;;9.50;7.00;;;;;;;;5038912;28;45328;-70
2022/10/31 01:52:50;;;;;;;;;10.67;8.33;;;;;;;;5039172;28;45267;-70
2022/10/31 01:55:23;;;;;;;;;6.50;5.50;;;;;;;;5057609;28;46707;-70
2022/10/31 01:57:51;;;;;;;;;9.00;7.25;;;;;;;;5044918;28;45388;-70
2022/10/31 02:00:17;;;;;;;;;7.25;6.25;;;;;;;;5038511;28;45249;-70
2022/10/31 02:02:45;;;;;;;;;8.00;6.25;;;;;;;;5038956;28;45435;-70
2022/10/31 02:05:14;;;;;;;;;7.50;7.00;;;;;;;;5049610;28;46370;-70
2022/10/31 02:07:48;;;;;;;;;7.33;7.00;;;;;;;;5058593;28;45358;-70
2022/10/31 02:10:13;;;;;;;;;9.00;9.00;;;;;;;;5054149;28;45435;-70
2022/10/31 02:12:40;;;;;;;;;10.00;7.00;;;;;;;;5038368;28;45458;-69
2022/10/31 02:15:06;;;;;;;;;6.50;3.50;;;;;;;;5056041;28;46675;-69
2022/10/31 02:17:31;;;;;;;;;8.25;7.00;;;;;;;;5058480;28;45544;-70
2022/10/31 02:20:04;;;;;;;;;7.00;6.75;;;;;;;;5058590;28;45239;-70
2022/10/31 02:22:34;;;;;;;;;6.00;6.00;;;;;;;;5050336;28;45466;-70
2022/10/31 02:25:16;;;;;;;;;6.75;5.75;;;;;;;;5038039;28;45525;-70
2022/10/31 02:27:56;;;;;;;;;5.25;5.25;;;;;;;;5037611;28;45232;-70
2022/10/31 02:30:23;;;;;;;;;7.25;5.00;;;;;;;;5039361;28;45391;-70
2022/10/31 02:32:58;;;;;;;;;5.25;4.75;;;;;;;;5049699;28;45506;-70
2022/10/31 02:35:29;;;;;;;;;6.25;6.25;;;;;;;;5057916;28;45727;-70
2022/10/31 02:38:02;;;;;;;;;6.00;5.00;;;;;;;;5056097;28;45358;-69
2022/10/31 02:40:32;;;;;;;;;9.00;6.25;;;;;;;;5058114;28;45304;-70
2022/10/31 02:43:00;;;;;;;;;8.00;6.00;;;;;;;;5056749;28;45447;-69
2022/10/31 02:45:44;;;;;;;;;7.25;6.75;;;;;;;;5037636;28;45577;-70
2022/10/31 02:48:13;;;;;;;;;6.25;5.00;;;;;;;;5037768;28;45277;-69
2022/10/31 02:50:41;;;;;;;;;7.75;6.75;;;;;;;;5038406;28;45485;-70
2022/10/31 02:53:06;;;;;;;;;4.67;4.67;;;;;;;;5038076;28;45415;-69
2022/10/31 02:55:34;;;;;;;;;12.75;8.00;;;;;;;;5037761;28;45363;-69
2022/10/31 02:58:14;;;;;;;;;10.33;8.67;;;;;;;;5037622;28;45352;-69
2022/10/31 03:00:48;;;;;;;;;8.00;6.00;;;;;;;;5037188;28;45578;-69
2022/10/31 03:03:25;;;;;;;;;8.00;7.50;;;;;;;;5037831;28;45212;-69
2022/10/31 03:06:03;;;;;;;;;9.33;7.00;;;;;;;;5037087;28;45550;-69
2022/10/31 03:08:37;;;;;;;;;6.75;6.75;;;;;;;;5037615;28;45406;-69
2022/10/31 03:11:07;;;;;;;;;7.00;6.67;;;;;;;;5037777;28;45332;-69
2022/10/31 03:13:46;;;;;;;;;8.50;5.00;;;;;;;;5037871;28;45341;-69
2022/10/31 03:16:16;;;;;;;;;7.00;7.00;;;;;;;;5036730;28;47310;-69
2022/10/31 03:18:54;;;;;;;;;7.67;7.67;;;;;;;;5037775;28;45317;-70
2022/10/31 03:21:22;;;;;;;;;5.67;5.67;;;;;;;;5057746;28;45345;-70
2022/10/31 03:23:49;;;;;;;;;8.67;8.00;;;;;;;;5056674;28;45383;-70
2022/10/31 03:26:15;;;;;;;;;9.67;7.67;;;;;;;;5057336;28;46268;-70
2022/10/31 03:28:46;;;;;;;;;8.67;6.67;;;;;;;;5057161;28;45475;-70
2022/10/31 03:31:14;;;;;;;;;6.33;6.00;;;;;;;;5043570;28;45625;-70
2022/10/31 03:33:40;;;;;;;;;9.00;7.00;;;;;;;;5037300;28;45357;-69
2022/10/31 03:36:08;;;;;;;;;9.33;8.33;;;;;;;;5037304;28;46446;-70
2022/10/31 03:38:35;;;;;;;;;7.67;7.67;;;;;;;;5037131;28;45510;-69
2022/10/31 03:41:03;;;;;;;;;8.00;7.33;;;;;;;;5037308;28;45458;-70
2022/10/31 03:43:30;;;;;;;;;10.00;9.00;;;;;;;;5037421;28;45308;-70
2022/10/31 03:45:55;;;;;;;;;6.33;6.33;;;;;;;;5038582;28;46182;-70
2022/10/31 03:48:21;;;;;;;;;7.00;7.00;;;;;;;;5037060;28;45339;-69
2022/10/31 03:50:49;;;;;;;;;7.33;7.33;;;;;;;;5036995;28;45178;-70
2022/10/31 03:53:19;;;;;;;;;8.67;8.00;;;;;;;;5037243;28;45488;-70
2022/10/31 03:56:01;;;;;;;;;8.75;7.50;;;;;;;;5036913;28;46466;-69
2022/10/31 03:58:37;;;;;;;;;6.00;6.00;;;;;;;;5036866;28;45367;-70
2022/10/31 04:01:05;;;;;;;;;12.00;8.67;;;;;;;;5036655;28;45533;-70
2022/10/31 04:03:31;;;;;;;;;9.25;9.25;;;;;;;;5036270;28;45324;-69
2022/10/31 04:05:59;;;;;;;;;8.50;5.00;;;;;;;;5036879;28;45668;-70
2022/10/31 04:08:27;;;;;;;;;7.75;7.75;;;;;;;;5036768;28;45288;-69
2022/10/31 04:10:54;;;;;;;;;7.50;5.25;;;;;;;;5036779;28;45520;-70
2022/10/31 04:13:22;;;;;;;;;9.33;6.33;;;;;;;;5036926;28;45428;-69
2022/10/31 04:15:48;;;;;;;;;6.00;6.00;;;;;;;;5036499;28;45363;-69
2022/10/31 04:18:14;;;;;;;;;6.50;5.25;;;;;;;;5036449;28;45356;-70
2022/10/31 04:20:40;;;;;;;;;5.00;5.00;;;;;;;;5048208;28;45703;-70
2022/10/31 04:23:13;;;;;;;;;7.00;5.25;;;;;;;;5056636;28;45736;-70
2022/10/31 04:25:38;;;;;;;;;8.75;7.00;;;;;;;;5056752;28;45437;-70
2022/10/31 04:28:04;;;;;;;;;9.50;7.00;;;;;;;;5056755;28;45220;-69
2022/10/31 04:30:29;;;;;;;;;8.25;7.25;;;;;;;;5056797;28;45454;-69
2022/10/31 04:32:54;;;;;;;;;8.75;6.00;;;;;;;;5043297;28;45237;-69
2022/10/31 04:35:19;;;;;;;;;6.25;6.25;;;;;;;;5039330;28;45577;-69
2022/10/31 04:37:44;;;;;;;;;9.00;7.25;;;;;;;;5055791;28;45433;-69
2022/10/31 04:40:10;;;;;;;;;9.25;8.00;;;;;;;;5051696;28;45505;-70
2022/10/31 04:42:35;;;;;;;;;7.00;7.00;;;;;;;;5060360;28;45390;-69
2022/10/31 04:45:00;;;;;;;;;11.00;8.33;;;;;;;;5059777;28;46087;-69
2022/10/31 04:47:25;;;;;;;;;10.25;9.25;;;;;;;;5058108;28;45466;-69
2022/10/31 04:49:51;;;;;;;;;8.00;8.00;;;;;;;;5060083;28;45276;-70
2022/10/31 04:52:16;;;;;;;;;7.25;7.00;;;;;;;;5054313;28;45324;-69
2022/10/31 04:54:41;;;;;;;;;8.67;8.00;;;;;;;;5039637;28;45533;-69
2022/10/31 04:57:06;;;;;;;;;10.50;9.00;;;;;;;;5038748;28;45646;-70
2022/10/31 04:59:31;;;;;;;;;11.25;11.25;;;;;;;;5039741;28;45498;-69
2022/10/31 05:01:57;;;;;;;;;12.33;8.00;;;;;;;;5039639;28;45363;-69
2022/10/31 05:04:22;;;;;;;;;10.00;9.00;;;;;;;;5039248;28;45444;-69
2022/10/31 05:06:47;;;;;;;;;14.33;13.00;;;;;;;;5039502;28;45361;-69
2022/10/31 05:09:12;;;;;;;;;10.25;9.50;;;;;;;;5039434;28;45502;-69
2022/10/31 05:11:38;;;;;;;;;9.50;7.00;;;;;;;;5056816;28;45415;-69
2022/10/31 05:14:03;;;;;;;;;11.75;10.00;;;;;;;;5058971;28;46790;-69
2022/10/31 05:16:28;;;;;;;;;9.50;9.00;;;;;;;;5058762;28;45322;-69
2022/10/31 05:18:54;;;;;;;;;13.00;10.00;;;;;;;;5059569;28;45218;-69
2022/10/31 05:21:19;;;;;;;;;11.33;9.00;;;;;;;;5059559;28;45433;-69
2022/10/31 05:23:44;;;;;;;;;12.67;10.00;;;;;;;;5059273;28;47087;-69
2022/10/31 05:26:09;;;;;;;;;11.67;8.67;;;;;;;;5059263;28;45376;-69
2022/10/31 05:28:34;;;;;;;;;9.00;9.00;;;;;;;;5051122;28;45572;-69
2022/10/31 05:31:00;;;;;;;;;10.00;10.00;;;;;;;;5058504;28;45582;-68
2022/10/31 05:33:25;;;;;;;;;10.00;10.00;;;;;;;;5058351;28;45471;-69
2022/10/31 05:35:50;;;;;;;;;11.75;10.00;;;;;;;;5039204;28;45452;-69
2022/10/31 05:38:15;;;;;;;;;11.67;10.33;;;;;;;;5050133;28;45290;-69
2022/10/31 05:40:40;;;;;;;;;10.33;10.00;;;;;;;;5059315;28;45416;-69
2022/10/31 05:43:06;;;;;;;;;12.67;9.00;;;;;;;;5059157;28;46771;-68
2022/10/31 05:45:31;;;;;;;;;13.00;11.67;;;;;;;;5045505;28;45227;-70
2022/10/31 05:47:57;;;;;;;;;13.00;9.00;;;;;;;;5058959;28;45276;-72
2022/10/31 05:50:23;;;;;;;;;14.75;10.50;;;;;;;;5059323;28;45565;-71
2022/10/31 05:52:54;;;;;;;;;13.67;11.00;;;;;;;;5057364;28;46402;-67
2022/10/31 05:55:19;;;;;;;;;12.67;12.67;;;;;;;;5058941;28;45391;-68
2022/10/31 05:57:44;;;;;;;;;9.50;9.00;;;;;;;;5058904;28;45479;-72
2022/10/31 06:00:10;;;;;;;;;11.67;11.33;;;;;;;;5044000;28;45379;-72
2022/10/31 06:02:35;;;;;;;;;12.00;10.00;;;;;;;;5038761;28;45981;-71
2022/10/31 06:05:01;;;;;;;;;11.33;10.00;;;;;;;;5038357;28;45438;-70
2022/10/31 06:07:26;;;;;;;;;12.67;11.00;;;;;;;;5054841;28;45314;-69
2022/10/31 06:09:52;;;;;;;;;9.33;9.33;;;;;;;;5058650;28;45501;-69
2022/10/31 06:12:17;;;;;;;;;13.33;10.00;;;;;;;;5058621;28;45610;-69
2022/10/31 06:14:42;;;;;;;;;13.67;12.00;;;;;;;;5050007;28;45350;-71
2022/10/31 06:17:07;;;;;;;;;15.00;10.00;;;;;;;;5058363;28;45198;-71
2022/10/31 06:19:32;;;;;;;;;16.00;13.00;;;;;;;;5039923;28;45465;-71
2022/10/31 06:21:57;;;;;;;;;15.00;14.00;;;;;;;;5038094;28;46556;-71
2022/10/31 06:24:23;;;;;;;;;16.33;12.67;;;;;;;;5038254;28;45450;-71
2022/10/31 06:26:48;;;;;;;;;20.33;15.33;;;;;;;;5043048;28;45315;-71
2022/10/31 06:29:13;;;;;;;;;19.00;15.00;;;;;;;;5038650;28;45364;-71
2022/10/31 06:31:38;;;;;;;;;13.00;13.00;;;;;;;;5037715;28;46508;-71
2022/10/31 06:34:03;;;;;;;;;15.00;14.00;;;;;;;;5037265;28;45245;-71
2022/10/31 06:36:29;;;;;;;;;18.00;17.00;;;;;;;;5038150;28;45150;-71
2022/10/31 06:38:54;;;;;;;;;18.33;16.33;;;;;;;;5038139;28;45245;-71
2022/10/31 06:41:19;;;;;;;;;14.67;13.67;;;;;;;;5037718;28;46289;-71
2022/10/31 06:43:47;;;;;;;;;21.67;18.00;;;;;;;;5037810;28;45364;-71
2022/10/31 06:46:12;;;;;;;;;14.67;14.00;;;;;;;;5037798;28;45464;-71
2022/10/31 06:48:37;;;;;;;;;19.00;17.00;;;;;;;;5037760;28;45609;-71
2022/10/31 06:51:03;;;;;;;;;18.00;18.00;;;;;;;;5036647;28;46350;-71
2022/10/31 06:53:29;;;;;;;;;21.00;16.33;;;;;;;;5037569;28;45264;-71
2022/10/31 06:55:58;;;;;;;;;15.00;15.00;;;;;;;;5037477;28;45458;-71
2022/10/31 06:58:23;;;;;;;;;16.33;16.00;;;;;;;;5037587;28;45703;-71
2022/10/31 07:00:48;;;;;;;;;17.00;17.00;;;;;;;;5037631;28;45362;-71
2022/10/31 07:03:15;;;;;;;;;22.67;17.00;;;;;;;;5037630;28;45506;-71
2022/10/31 07:05:40;;;;;;;;;22.33;18.00;;;;;;;;5039362;28;45454;-71
2022/10/31 07:08:07;;;;;;;;;17.00;15.00;;;;;;;;5062625;28;45579;-70
2022/10/31 07:10:33;;;;;;;;;21.67;21.00;;;;;;;;5054345;28;45811;-69
2022/10/31 07:12:59;;;;;;;;;21.67;19.33;;;;;;;;5038202;28;45464;-70
2022/10/31 07:15:25;;;;;;;;;17.00;16.67;;;;;;;;5037201;28;45355;-70
2022/10/31 07:17:50;;;;;;;;;19.67;18.67;;;;;;;;5037479;28;45421;-70
2022/10/31 07:20:16;;;;;;;;;21.33;19.00;;;;;;;;5036670;28;46769;-70
2022/10/31 07:22:41;;;;;;;;;21.00;19.00;;;;;;;;5037086;28;45432;-70
2022/10/31 07:25:06;;;;;;;;;20.67;19.00;;;;;;;;5051999;28;45457;-70
2022/10/31 07:27:35;;;;;;;;;20.33;18.00;;;;;;;;5057522;28;45230;-70
2022/10/31 07:30:00;;;;;;;;;19.67;17.00;;;;;;;;5056890;28;46626;-70
2022/10/31 07:32:25;;;;;;;;;22.00;20.33;;;;;;;;5057345;28;45315;-76
2022/10/31 07:34:50;;;;;;;;;23.00;19.00;;;;;;;;5056863;28;45425;-76
2022/10/31 07:37:16;;;;;;;;;21.67;19.67;;;;;;;;5057509;28;45415;-76
2022/10/31 07:39:41;;;;;;;;;18.33;17.33;;;;;;;;5054156;28;46252;-69
2022/10/31 07:42:06;;;;;;;;;21.67;20.00;;;;;;;;5044091;28;45322;-72
2022/10/31 07:44:31;;;;;;;;;25.33;22.67;;;;;;;;5037177;28;45356;-71
2022/10/31 07:46:56;;;;;;;;;26.00;21.67;;;;;;;;5036531;28;45356;-67
2022/10/31 07:49:22;;;;;;;;;22.67;18.67;;;;;;;;5036695;28;45369;-71
2022/10/31 07:51:47;;;;;;;;;22.67;22.00;;;;;;;;5046375;28;46036;-69
2022/10/31 07:54:12;;;;;;;;;24.67;20.67;;;;;;;;5056522;28;45256;-72
2022/10/31 07:56:37;;;;;;;;;24.33;22.33;;;;;;;;5057248;28;45678;-71
2022/10/31 07:59:02;;;;;;;;;25.00;21.33;;;;;;;;5041309;28;46433;-71
2022/10/31 08:01:28;;;;;;;;;22.67;18.67;;;;;;;;5036282;28;45348;-71
2022/10/31 08:03:53;;;;;;;;;23.67;20.67;;;;;;;;5037275;28;45392;-68
2022/10/31 08:06:18;;;;;;;;;22.33;20.67;;;;;;;;5036822;28;45320;-65
2022/10/31 08:08:43;;;;;;;;;18.33;18.33;;;;;;;;5036766;28;45409;-67
2022/10/31 08:11:08;;;;;;;;;20.33;16.33;;;;;;;;5043400;28;45378;-69
2022/10/31 08:13:34;;;;;;;;;27.67;22.67;;;;;;;;5050814;28;45350;-67
2022/10/31 08:16:03;;;;;;;;;21.33;17.67;;;;;;;;5060000;28;45352;-68
2022/10/31 08:18:29;;;;;;;;;17.33;16.00;;;;;;;;5059811;28;47253;-69
2022/10/31 08:20:54;;;;;;;;;20.33;20.00;;;;;;;;5059666;28;45383;-67
2022/10/31 08:23:20;;;;;;;;;17.33;16.00;;;;;;;;5060292;28;45463;-72
2022/10/31 08:25:47;;;;;;;;;16.67;15.00;;;;;;;;5071282;28;45309;-74
2022/10/31 08:28:13;;;;;;;;;23.00;18.33;;;;;;;;5059528;28;45736;-71
2022/10/31 08:30:39;;;;;;;;;18.00;15.67;;;;;;;;5059359;28;45461;-72
2022/10/31 08:33:16;;;;;;;;;22.33;19.00;;;;;;;;5048159;28;46174;-75
2022/10/31 08:35:42;;;;;;;;;21.33;19.33;;;;;;;;5039775;28;45554;-73
2022/10/31 08:38:08;;;;;;;;;23.00;19.00;;;;;;;;5039700;28;46211;-70
2022/10/31 08:40:35;;;;;;;;;23.33;20.33;;;;;;;;5039752;28;45304;-69
2022/10/31 08:43:03;;;;;;;;;20.67;18.00;;;;;;;;5046325;28;45453;-78
2022/10/31 08:45:29;;;;;;;;;24.33;20.33;;;;;;;;5067775;28;45653;-72
2022/10/31 08:48:02;;;;;;;;;23.00;22.33;;;;;;;;5039626;28;45316;-65
2022/10/31 08:50:28;;;;;;;;;21.67;19.67;;;;;;;;5039505;28;45405;-77
2022/10/31 08:52:53;;;;;;;;;23.67;20.00;;;;;;;;5050045;28;46084;-70
2022/10/31 08:55:19;;;;;;;;;28.33;26.33;;;;;;;;5054282;28;45723;-75
2022/10/31 08:57:44;;;;;;;;;24.33;20.00;;;;;;;;5039422;28;46361;-71
2022/10/31 09:00:09;;;;;;;;;21.67;18.67;;;;;;;;5039254;28;45415;-70
2022/10/31 09:02:35;;;;;;;;;27.67;23.67;;;;;;;;5046384;28;45404;-70
2022/10/31 09:05:00;;;;;;;;;22.67;19.67;;;;;;;;5045960;28;45463;-71
2022/10/31 09:07:25;;;;;;;;;23.33;21.00;;;;;;;;5059115;28;45496;-72
2022/10/31 09:09:50;;;;;;;;;22.00;19.67;;;;;;;;5052132;28;46661;-73
2022/10/31 09:12:16;;;;;;;;;22.67;22.67;;;;;;;;5045340;28;45716;-70
2022/10/31 09:14:41;;;;;;;;;29.33;22.33;;;;;;;;5045090;28;45385;-78
2022/10/31 09:17:06;;;;;;;;;26.00;22.67;;;;;;;;5059386;28;45443;-75
2022/10/31 09:19:31;;;;;;;;;24.00;23.00;;;;;;;;5053026;28;45564;-67
2022/10/31 09:21:56;;;;;;;;;31.00;23.33;;;;;;;;5056318;28;45496;-69
2022/10/31 09:24:22;;;;;;;;;26.00;23.33;;;;;;;;5050043;28;45542;-72
2022/10/31 09:26:47;;;;;;;;;21.67;17.67;;;;;;;;5044493;28;45446;-80
2022/10/31 09:29:12;;;;;;;;;21.33;20.00;;;;;;;;5057303;28;45230;-82
2022/10/31 09:31:38;;;;;;;;;22.00;20.33;;;;;;;;5047303;28;45449;-69
2022/10/31 09:34:03;;;;;;;;;23.00;20.67;;;;;;;;5052912;28;45562;-75
2022/10/31 09:36:28;;;;;;;;;18.33;17.67;;;;;;;;5047508;28;45502;-69
2022/10/31 09:38:53;;;;;;;;;21.00;21.00;;;;;;;;5039332;28;45717;-76
2022/10/31 09:41:31;;;;;;;;;18.33;16.33;;;;;;;;5055371;28;45557;-75
2022/10/31 09:43:59;;;;;;;;;17.00;14.00;;;;;;;;5051463;28;45481;-71
2022/10/31 09:46:27;;;;;;;;;17.67;16.67;;;;;;;;5038529;28;46399;-76
2022/10/31 09:49:12;;;;;;;;;23.00;19.33;;;;;;;;5044580;28;45204;-69
2022/10/31 09:51:40;;;;;;;;;19.33;19.00;;;;;;;;5056841;28;45323;-75
2022/10/31 09:54:18;;;;;;;;;21.33;18.67;;;;;;;;5044298;28;45542;-76
2022/10/31 09:56:44;;;;;;;;;17.67;15.33;;;;;;;;5040633;28;45382;-75
2022/10/31 09:59:24;;;;;;;;;15.33;15.33;;;;;;;;5054896;28;45395;-76
2022/10/31 10:01:52;;;;;;;;;15.67;15.00;;;;;;;;5047120;28;45501;-77
2022/10/31 10:04:23;;;;;;;;;15.00;15.00;;;;;;;;5038793;28;45349;-75
2022/10/31 10:06:50;;;;;;;;;15.33;13.00;;;;;;;;5056809;28;45382;-77
2022/10/31 10:09:15;;;;;;;;;14.00;12.33;;;;;;;;5058053;28;45425;-78
2022/10/31 10:11:41;;;;;;;;;18.33;14.00;;;;;;;;5044184;28;45341;-77
2022/10/31 10:14:20;;;;;;;;;18.67;14.00;;;;;;;;5040910;28;45652;-77
2022/10/31 10:17:04;;;;;;;;;14.00;11.00;;;;;;;;5056586;28;45864;-77
2022/10/31 10:19:35;;;;;;;;;14.67;13.00;;;;;;;;5050455;28;45390;-76
2022/10/31 10:22:06;;;;;;;;;15.00;13.33;;;;;;;;5044624;28;45347;-77
2022/10/31 10:24:37;;;;;;;;;10.00;8.33;;;;;;;;5057027;28;46016;-75
2022/10/31 10:27:14;;;;;;;;;14.00;10.33;;;;;;;;5045569;28;46407;-75
2022/10/31 10:29:40;;;;;;;;;16.00;10.00;;;;;;;;5037520;28;45411;-78
2022/10/31 10:32:13;;;;;;;;;13.67;9.67;;;;;;;;5043375;28;45419;-78
2022/10/31 10:34:47;;;;;;;;;9.33;7.33;;;;;;;;5050617;28;45740;-78
2022/10/31 10:37:20;;;;;;;;;11.67;8.00;;;;;;;;5055440;28;46549;-77
2022/10/31 10:39:49;;;;;;;;;7.00;7.00;;;;;;;;5036584;28;45424;-77
2022/10/31 10:47:44;;;;;;;;;10.33;9.33;;;;;;;;5056934;28;45786;-72
2022/10/31 10:50:14;;;;;;;;;9.50;7.50;;;;;;;;5056092;28;45338;-71
2022/10/31 10:52:48;;;;;;;;;9.67;8.00;;;;;;;;5039650;28;45304;-75
2022/10/31 10:55:46;;;;;;;;;11.75;11.00;;;;;;;;5038102;28;45314;-76
2022/10/31 10:58:11;;;;;;;;;10.00;10.00;;;;;;;;5015473;28;45910;-76
2022/10/31 11:00:42;;;;;;;;;8.33;8.33;;;;;;;;5022341;28;45514;-75
2022/10/31 11:03:08;;;;;;;;;11.67;9.33;;;;;;;;5032321;28;46089;-77
2022/10/31 11:05:52;;;;;;;;;12.00;10.33;;;;;;;;5028229;28;45390;-76
2022/10/31 11:08:27;;;;;;;;;17.67;12.33;;;;;;;;5027529;28;45531;-75
2022/10/31 11:11:03;;;;;;;;;9.33;9.33;;;;;;;;5026251;28;45378;-76
2022/10/31 11:13:29;;;;;;;;;14.33;11.33;;;;;;;;5033045;28;45345;-75
2022/10/31 11:16:00;;;;;;;;;11.33;11.33;;;;;;;;5011727;28;45699;-73
2022/10/31 11:18:27;;;;;;;;;13.50;9.75;;;;;;;;5027474;28;46673;-78
2022/10/31 11:20:54;;;;;;;;;8.25;8.25;;;;;;;;5031534;28;45502;-77
2022/10/31 11:23:20;;;;;;;;;15.00;12.33;;;;;;;;5032135;28;45582;-78
2022/10/31 11:26:04;;;;;;;;;11.33;9.00;;;;;;;;5023256;28;45777;-72
2022/10/31 11:28:32;;;;;;;;;8.00;8.00;;;;;;;;5027714;28;45835;-72
2022/10/31 11:31:04;;;;;;;;;11.00;11.00;;;;;;;;5032750;28;45410;-71
2022/10/31 11:33:44;;;;;;;;;7.33;6.00;;;;;;;;5039454;28;45551;-79
2022/10/31 11:36:22;;;;;;;;;12.33;8.00;;;;;;;;5051527;28;45435;-83
2022/10/31 11:38:47;;;;;;;;;9.33;8.00;;;;;;;;5042473;28;45649;-80
2022/10/31 11:41:17;;;;;;;;;7.00;7.00;;;;;;;;5050984;28;45540;-71
2022/10/31 11:44:03;;;;;;;;;10.00;10.00;;;;;;;;5042021;28;45450;-72
2022/10/31 11:46:34;;;;;;;;;6.25;6.25;;;;;;;;5041141;28;45286;-71
2022/10/31 11:49:00;;;;;;;;;7.25;6.50;;;;;;;;5054172;28;45393;-70
2022/10/31 11:51:28;;;;;;;;;6.00;6.00;;;;;;;;5057026;28;45255;-72
2022/10/31 11:54:02;;;;;;;;;10.00;9.00;;;;;;;;5040912;28;45430;-81
2022/10/31 11:56:27;;;;;;;;;11.00;9.67;;;;;;;;5047118;28;45469;-75
2022/10/31 11:58:57;;;;;;;;;9.67;7.00;;;;;;;;5047506;28;45536;-70
2022/10/31 12:01:24;;;;;;;;;8.00;7.33;;;;;;;;5041028;28;45302;-78
2022/10/31 12:03:49;;;;;;;;;11.00;8.00;;;;;;;;5051053;28;45295;-76
2022/10/31 12:06:23;;;;;;;;;10.00;6.67;;;;;;;;5046426;28;45508;-76
2022/10/31 12:08:49;;;;;;;;;12.33;9.00;;;;;;;;5039446;28;46890;-75
2022/10/31 12:11:29;;;;;;;;;10.33;9.00;;;;;;;;5036386;28;45441;-75
2022/10/31 12:14:03;;;;;;;;;10.33;10.33;;;;;;;;5036844;28;45359;-75
2022/10/31 12:16:34;;;;;;;;;12.67;9.33;;;;;;;;5037695;28;45455;-76
2022/10/31 12:19:03;;;;;;;;;9.33;8.67;;;;;;;;5036532;28;45465;-77
2022/10/31 12:21:43;;;;;;;;;8.00;7.67;;;;;;;;5036310;28;45414;-75
2022/10/31 12:24:32;;;;;;;;;7.67;7.67;;;;;;;;5045175;28;45351;-75
2022/10/31 12:27:03;;;;;;;;;11.00;8.33;;;;;;;;5056771;28;45429;-75
2022/10/31 12:29:37;;;;;;;;;10.00;7.00;;;;;;;;5036274;28;45410;-76
2022/10/31 12:32:19;;;;;;;;;12.33;9.33;;;;;;;;5047292;28;45384;-76
2022/10/31 12:34:47;;;;;;;;;16.33;11.67;;;;;;;;5036578;28;45370;-77
2022/10/31 12:37:42;;;;;;;;;13.00;9.67;;;;;;;;5044210;28;45563;-76
2022/10/31 12:40:10;;;;;;;;;11.33;7.67;;;;;;;;5033635;28;46549;-76
2022/10/31 12:42:44;;;;;;;;;14.00;11.33;;;;;;;;5034591;28;45198;-77
2022/10/31 12:45:13;;;;;;;;;13.00;10.00;;;;;;;;5031058;28;45387;-77
2022/10/31 12:47:43;;;;;;;;;10.67;10.67;;;;;;;;5033038;28;45492;-76
2022/10/31 12:50:10;;;;;;;;;9.67;9.67;;;;;;;;5030574;28;46386;-77
2022/10/31 12:52:36;;;;;;;;;13.33;10.67;;;;;;;;5025214;28;45565;-73
2022/10/31 12:55:16;;;;;;;;;12.33;11.00;;;;;;;;5028819;28;45381;-72
2022/10/31 12:57:47;;;;;;;;;13.00;11.67;;;;;;;;5036026;28;45472;-73
2022/10/31 13:00:19;;;;;;;;;9.00;7.33;;;;;;;;5036560;28;46233;-70
2022/10/31 13:03:02;;;;;;;;;18.75;11.25;;;;;;;;5021438;28;45365;-71
2022/10/31 13:05:30;;;;;;;;;13.67;13.00;;;;;;;;5016935;28;45370;-70
2022/10/31 13:07:56;;;;;;;;;13.67;12.33;;;;;;;;5017601;28;45480;-70
2022/10/31 13:10:25;;;;;;;;;12.00;11.33;;;;;;;;5030128;28;46163;-71
2022/10/31 13:12:53;;;;;;;;;13.67;12.00;;;;;;;;5035180;28;45563;-70
2022/10/31 13:15:23;;;;;;;;;11.33;11.33;;;;;;;;5035841;28;45620;-71
2022/10/31 13:17:50;;;;;;;;;8.00;8.00;;;;;;;;5053559;28;45466;-77
2022/10/31 13:20:19;;;;;;;;;16.00;12.33;;;;;;;;5061554;28;45422;-73
2022/10/31 13:22:48;;;;;;;;;13.00;9.67;;;;;;;;5059036;28;45328;-70
2022/10/31 13:25:23;;;;;;;;;13.00;13.00;;;;;;;;5057671;28;45390;-72
2022/10/31 13:27:51;;;;;;;;;18.00;12.00;;;;;;;;5057209;28;45501;-69
2022/10/31 13:30:23;;;;;;;;;14.00;11.67;;;;;;;;5048690;28;46141;-70
2022/10/31 13:32:54;;;;;;;;;15.67;14.00;;;;;;;;5040922;28;45311;-73
2022/10/31 13:35:22;;;;;;;;;16.00;13.00;;;;;;;;5046405;28;45392;-71
2022/10/31 13:38:00;;;;;;;;;14.33;14.33;;;;;;;;5051620;28;45929;-70
2022/10/31 13:40:40;;;;;;;;;10.33;10.33;;;;;;;;5053403;28;45520;-71
2022/10/31 13:43:19;;;;;;;;;11.67;11.67;;;;;;;;5055783;28;45149;-70
2022/10/31 13:45:51;;;;;;;;;13.67;13.00;;;;;;;;5047575;28;45410;-72
2022/10/31 13:48:18;;;;;;;;;15.33;12.67;;;;;;;;5059337;28;45273;-74
2022/10/31 13:50:55;;;;;;;;;15.00;13.00;;;;;;;;5058790;28;47451;-72
2022/10/31 13:53:21;;;;;;;;;12.67;11.67;;;;;;;;5057655;28;45345;-70
2022/10/31 13:55:49;;;;;;;;;13.00;11.00;;;;;;;;5055606;28;46938;-69
2022/10/31 13:58:21;;;;;;;;;14.33;12.00;;;;;;;;5059270;28;45423;-76
2022/10/31 14:00:46;;;;;;;;;12.33;12.33;;;;;;;;5058715;28;46334;-71
2022/10/31 14:03:19;;;;;;;;;13.67;12.00;;;;;;;;5057058;28;45424;-71
2022/10/31 14:05:51;;;;;;;;;15.00;12.00;;;;;;;;5052880;28;46168;-71
2022/10/31 14:08:18;;;;;;;;;13.00;13.00;;;;;;;;5055138;28;45389;-71
2022/10/31 14:10:49;;;;;;;;;17.00;13.00;;;;;;;;5047888;28;47069;-72
2022/10/31 14:13:18;;;;;;;;;20.00;15.67;;;;;;;;5043516;28;45546;-76
2022/10/31 14:15:52;;;;;;;;;14.00;13.00;;;;;;;;5052941;28;45583;-76
2022/10/31 14:18:37;;;;;;;;;13.00;13.00;;;;;;;;5043661;28;45428;-73
2022/10/31 14:21:21;;;;;;;;;19.67;15.33;;;;;;;;5044016;28;46637;-73
2022/10/31 14:23:47;;;;;;;;;15.33;12.33;;;;;;;;5049682;28;45732;-72
2022/10/31 14:26:21;;;;;;;;;12.67;12.67;;;;;;;;5048554;28;45327;-73
2022/10/31 14:28:47;;;;;;;;;13.33;9.33;;;;;;;;5044294;28;45581;-73
2022/10/31 14:31:24;;;;;;;;;12.00;11.33;;;;;;;;5052014;28;46979;-74
2022/10/31 14:33:49;;;;;;;;;14.67;13.67;;;;;;;;5039275;28;46938;-76
2022/10/31 14:36:23;;;;;;;;;17.00;13.67;;;;;;;;5043788;28;45336;-74
2022/10/31 14:38:55;;;;;;;;;12.67;11.00;;;;;;;;5057441;28;45551;-73
2022/10/31 14:41:20;;;;;;;;;18.00;16.33;;;;;;;;5057504;28;45500;-74